^^
Station Historical Data
Daily Summary for February 21, 2017 Units:  Both    English   Metric
« Previous Day
Next Day »
Daily Weekly Monthly Yearly Custom
  High: Low: Average:
Temperature: 79.9 °F /  26.6 °C 60.1 °F /  15.6 °C 67.3 °F /  19.6 °C
Dew Point: 63.1 °F /  17.3 °C 52.0 °F /  11.1 °C 58.6 °F /  14.8 °C
Humidity: 94% 42% 76%
Wind Speed: 10.1mph /  16.3km/h - 1.7mph /  2.7km/h
Wind Gust: 17.0mph /  27.4km/h - -
Wind- - South
Pressure: 29.78 in /  1008.4 hPa 29.65 in /  1003.9 hPa -
Precipitation: 0.32 in /  8.13 mm    
Historical Graphs
 
 
Tabular Data for February 21, 2017
Time Temperature Dew Point Pressure Wind Wind Speed Wind Gust Humidity Rainfall Rate (Hourly) solar Conditions
00:01 63.3 °F /  17.4 °C 59.0 °F /  15 °C 29.78in /  1008.4hPa WNW 2.0mph /  3.2km/h 6.0mph /  9.7km/h 86% 0.00in /  0mm 0.0 W/m2
00:08 63.3 °F /  17.4 °C 59.0 °F /  15 °C 29.77in /  1008hPa West 0.9mph /  1.4km/h 5.0mph /  8km/h 86% 0.00in /  0mm 0.0 W/m2
00:14 63.3 °F /  17.4 °C 59.4 °F /  15.2 °C 29.77in /  1008hPa WSW 2.0mph /  3.2km/h 3.0mph /  4.8km/h 87% 0.00in /  0mm 0.0 W/m2
00:20 63.3 °F /  17.4 °C 59.4 °F /  15.2 °C 29.77in /  1008hPa WNW 0.9mph /  1.4km/h 3.0mph /  4.8km/h 87% 0.00in /  0mm 0.0 W/m2
00:26 63.1 °F /  17.3 °C 59.2 °F /  15.1 °C 29.77in /  1008hPa WSW 2.9mph /  4.7km/h 5.0mph /  8km/h 87% 0.00in /  0mm 0.0 W/m2
00:32 63.1 °F /  17.3 °C 59.2 °F /  15.1 °C 29.77in /  1008hPa WSW 2.0mph /  3.2km/h 4.0mph /  6.4km/h 87% 0.00in /  0mm 0.0 W/m2
00:38 63.0 °F /  17.2 °C 59.4 °F /  15.2 °C 29.77in /  1008hPa WSW 2.0mph /  3.2km/h 5.0mph /  8km/h 88% 0.00in /  0mm 0.0 W/m2
00:44 63.0 °F /  17.2 °C 59.4 °F /  15.2 °C 29.77in /  1008hPa West 0.9mph /  1.4km/h 3.0mph /  4.8km/h 88% 0.00in /  0mm 0.0 W/m2
00:51 63.0 °F /  17.2 °C 59.4 °F /  15.2 °C 29.77in /  1008hPa Calm   1.0mph /  1.6km/h 88% 0.00in /  0mm 0.0 W/m2
00:57 63.0 °F /  17.2 °C 59.7 °F /  15.4 °C 29.77in /  1008hPa Calm   2.0mph /  3.2km/h 89% 0.00in /  0mm 0.0 W/m2
01:03 63.0 °F /  17.2 °C 59.7 °F /  15.4 °C 29.76in /  1007.7hPa WSW 2.0mph /  3.2km/h 4.0mph /  6.4km/h 89% 0.00in /  0mm 0.0 W/m2
01:09 62.8 °F /  17.1 °C 59.5 °F /  15.3 °C 29.76in /  1007.7hPa Calm   2.0mph /  3.2km/h 89% 0.00in /  0mm 0.0 W/m2
01:15 62.8 °F /  17.1 °C 59.5 °F /  15.3 °C 29.76in /  1007.7hPa Calm   1.0mph /  1.6km/h 89% 0.00in /  0mm 0.0 W/m2
01:21 62.8 °F /  17.1 °C 59.5 °F /  15.3 °C 29.77in /  1008hPa Calm   1.0mph /  1.6km/h 89% 0.00in /  0mm 0.0 W/m2
01:27 62.8 °F /  17.1 °C 59.5 °F /  15.3 °C 29.76in /  1007.7hPa Calm     89% 0.00in /  0mm 0.0 W/m2
01:33 62.8 °F /  17.1 °C 59.7 °F /  15.4 °C 29.76in /  1007.7hPa Calm   2.0mph /  3.2km/h 90% 0.00in /  0mm 0.0 W/m2
01:40 62.8 °F /  17.1 °C 59.7 °F /  15.4 °C 29.76in /  1007.7hPa Calm   1.0mph /  1.6km/h 90% 0.00in /  0mm 0.0 W/m2
01:46 62.8 °F /  17.1 °C 60.1 °F /  15.6 °C 29.76in /  1007.7hPa Calm     91% 0.01in /  0.25mm 0.0 W/m2
01:52 62.8 °F /  17.1 °C 60.1 °F /  15.6 °C 29.76in /  1007.7hPa SSW 0.9mph /  1.4km/h 2.0mph /  3.2km/h 91% 0.03in /  0.76mm 0.0 W/m2
01:58 62.4 °F /  16.9 °C 59.7 °F /  15.4 °C 29.76in /  1007.7hPa SSW 2.0mph /  3.2km/h 2.0mph /  3.2km/h 91% 0.06in /  1.52mm 0.0 W/m2
02:04 62.1 °F /  16.7 °C 59.7 °F /  15.4 °C 29.75in /  1007.3hPa Calm   2.0mph /  3.2km/h 92% 0.07in /  1.78mm 0.0 W/m2
02:10 62.1 °F /  16.7 °C 59.7 °F /  15.4 °C 29.75in /  1007.3hPa SW 0.9mph /  1.4km/h 2.0mph /  3.2km/h 92% 0.09in /  2.29mm 0.0 W/m2
02:16 61.9 °F /  16.6 °C 59.9 °F /  15.5 °C 29.75in /  1007.3hPa Calm     93% 0.15in /  3.81mm 0.0 W/m2
02:22 61.9 °F /  16.6 °C 59.9 °F /  15.5 °C 29.75in /  1007.3hPa WSW 0.9mph /  1.4km/h 3.0mph /  4.8km/h 93% 0.20in /  5.08mm 0.0 W/m2
02:29 61.7 °F /  16.5 °C 59.7 °F /  15.4 °C 29.74in /  1007hPa Calm   4.0mph /  6.4km/h 93% 0.21in /  5.33mm 0.0 W/m2
02:35 61.3 °F /  16.3 °C 59.4 °F /  15.2 °C 29.74in /  1007hPa Calm   3.0mph /  4.8km/h 93% 0.23in /  5.84mm 0.0 W/m2
02:41 61.3 °F /  16.3 °C 59.5 °F /  15.3 °C 29.74in /  1007hPa Calm   1.0mph /  1.6km/h 94% 0.24in /  6.1mm 0.0 W/m2
02:47 61.3 °F /  16.3 °C 59.5 °F /  15.3 °C 29.73in /  1006.7hPa Calm   2.0mph /  3.2km/h 94% 0.24in /  6.1mm 0.0 W/m2
02:53 61.5 °F /  16.4 °C 59.7 °F /  15.4 °C 29.73in /  1006.7hPa SSW 2.9mph /  4.7km/h 8.0mph /  12.9km/h 94% 0.24in /  6.1mm 0.0 W/m2
02:59 61.3 °F /  16.3 °C 59.5 °F /  15.3 °C 29.73in /  1006.7hPa SSW 6.0mph /  9.7km/h 7.0mph /  11.3km/h 94% 0.23in /  5.84mm 0.0 W/m2
03:06 61.0 °F /  16.1 °C 59.2 °F /  15.1 °C 29.73in /  1006.7hPa SSW 2.0mph /  3.2km/h 6.0mph /  9.7km/h 94% 0.23in /  5.84mm 0.0 W/m2
03:12 60.8 °F /  16 °C 59.0 °F /  15 °C 29.73in /  1006.7hPa SSW 2.0mph /  3.2km/h 6.0mph /  9.7km/h 94% 0.20in /  5.08mm 0.0 W/m2
03:18 60.8 °F /  16 °C 59.0 °F /  15 °C 29.73in /  1006.7hPa SSW 2.0mph /  3.2km/h 5.0mph /  8km/h 94% 0.13in /  3.3mm 0.0 W/m2
03:24 60.8 °F /  16 °C 59.0 °F /  15 °C 29.73in /  1006.7hPa SSW 2.0mph /  3.2km/h 6.0mph /  9.7km/h 94% 0.11in /  2.79mm 0.0 W/m2
03:30 60.6 °F /  15.9 °C 58.6 °F /  14.8 °C 29.72in /  1006.3hPa SW 2.0mph /  3.2km/h 8.0mph /  12.9km/h 93% 0.09in /  2.29mm 0.0 W/m2
03:36 60.6 °F /  15.9 °C 58.6 °F /  14.8 °C 29.72in /  1006.3hPa South 4.0mph /  6.4km/h 6.0mph /  9.7km/h 93% 0.08in /  2.03mm 0.0 W/m2
03:42 60.3 °F /  15.7 °C 57.6 °F /  14.2 °C 29.71in /  1006hPa SSE 4.0mph /  6.4km/h 13.0mph /  20.9km/h 91% 0.06in /  1.52mm 0.0 W/m2
03:49 60.1 °F /  15.6 °C 56.8 °F /  13.8 °C 29.71in /  1006hPa SE 6.9mph /  11.1km/h 17.0mph /  27.4km/h 89% 0.05in /  1.27mm 0.0 W/m2
03:55 60.3 °F /  15.7 °C 57.0 °F /  13.9 °C 29.71in /  1006hPa NNW 0.9mph /  1.4km/h 13.0mph /  20.9km/h 89% 0.03in /  0.76mm 0.0 W/m2
04:01 60.3 °F /  15.7 °C 57.0 °F /  13.9 °C 29.71in /  1006hPa South 8.1mph /  13km/h 10.0mph /  16.1km/h 89% 0.01in /  0.25mm 0.0 W/m2
04:07 60.3 °F /  15.7 °C 57.0 °F /  13.9 °C 29.71in /  1006hPa SSW 4.9mph /  7.9km/h 14.0mph /  22.5km/h 89% 0.01in /  0.25mm 0.0 W/m2
04:13 60.1 °F /  15.6 °C 57.2 °F /  14 °C 29.71in /  1006hPa SSE 4.9mph /  7.9km/h 8.0mph /  12.9km/h 90% 0.01in /  0.25mm 0.0 W/m2
04:19 60.3 °F /  15.7 °C 57.4 °F /  14.1 °C 29.71in /  1006hPa SSE 10.1mph /  16.3km/h 13.0mph /  20.9km/h 90% 0.00in /  0mm 0.0 W/m2
04:25 60.1 °F /  15.6 °C 57.2 °F /  14 °C 29.71in /  1006hPa SSE 6.0mph /  9.7km/h 6.0mph /  9.7km/h 90% 0.00in /  0mm 0.0 W/m2
04:32 60.3 °F /  15.7 °C 57.4 °F /  14.1 °C 29.71in /  1006hPa SE 6.0mph /  9.7km/h 15.0mph /  24.1km/h 90% 0.00in /  0mm 0.0 W/m2
04:38 60.3 °F /  15.7 °C 57.4 °F /  14.1 °C 29.71in /  1006hPa SSE 8.9mph /  14.3km/h 12.0mph /  19.3km/h 90% 0.00in /  0mm 0.0 W/m2
04:44 60.3 °F /  15.7 °C 57.4 °F /  14.1 °C 29.71in /  1006hPa SE 6.9mph /  11.1km/h 10.0mph /  16.1km/h 90% 0.00in /  0mm 0.0 W/m2
04:50 60.3 °F /  15.7 °C 57.4 °F /  14.1 °C 29.71in /  1006hPa SW 2.0mph /  3.2km/h 5.0mph /  8km/h 90% 0.00in /  0mm 0.0 W/m2
04:56 60.3 °F /  15.7 °C 57.6 °F /  14.2 °C 29.71in /  1006hPa WSW 4.9mph /  7.9km/h 7.0mph /  11.3km/h 91% 0.00in /  0mm 0.0 W/m2
05:02 60.3 °F /  15.7 °C 57.6 °F /  14.2 °C 29.71in /  1006hPa Calm   4.0mph /  6.4km/h 91% 0.00in /  0mm 0.0 W/m2
05:08 60.3 °F /  15.7 °C 57.6 °F /  14.2 °C 29.71in /  1006hPa SSW 2.9mph /  4.7km/h 3.0mph /  4.8km/h 91% 0.00in /  0mm 0.0 W/m2
05:14 60.3 °F /  15.7 °C 57.6 °F /  14.2 °C 29.71in /  1006hPa SSE 2.0mph /  3.2km/h 6.0mph /  9.7km/h 91% 0.00in /  0mm 0.0 W/m2
05:20 60.3 °F /  15.7 °C 57.6 °F /  14.2 °C 29.71in /  1006hPa Calm   5.0mph /  8km/h 91% 0.00in /  0mm 0.0 W/m2
05:27 60.3 °F /  15.7 °C 57.6 °F /  14.2 °C 29.72in /  1006.3hPa East 2.0mph /  3.2km/h 4.0mph /  6.4km/h 91% 0.00in /  0mm 0.0 W/m2
05:33 60.3 °F /  15.7 °C 57.6 °F /  14.2 °C 29.72in /  1006.3hPa Calm   1.0mph /  1.6km/h 91% 0.00in /  0mm 0.0 W/m2
05:39 60.4 °F /  15.8 °C 57.7 °F /  14.3 °C 29.72in /  1006.3hPa Calm   1.0mph /  1.6km/h 91% 0.00in /  0mm 0.0 W/m2
05:45 60.4 °F /  15.8 °C 57.7 °F /  14.3 °C 29.72in /  1006.3hPa Calm   1.0mph /  1.6km/h 91% 0.00in /  0mm 0.0 W/m2
05:51 60.4 °F /  15.8 °C 57.7 °F /  14.3 °C 29.72in /  1006.3hPa Calm     91% 0.00in /  0mm 0.0 W/m2
05:57 60.4 °F /  15.8 °C 57.7 °F /  14.3 °C 29.72in /  1006.3hPa Calm     91% 0.00in /  0mm 0.0 W/m2
06:03 60.4 °F /  15.8 °C 57.7 °F /  14.3 °C 29.72in /  1006.3hPa WNW 2.0mph /  3.2km/h 2.0mph /  3.2km/h 91% 0.00in /  0mm 0.0 W/m2
06:09 60.6 °F /  15.9 °C 57.9 °F /  14.4 °C 29.72in /  1006.3hPa Calm   3.0mph /  4.8km/h 91% 0.00in /  0mm 0.0 W/m2
06:15 60.6 °F /  15.9 °C 58.3 °F /  14.6 °C 29.72in /  1006.3hPa Calm     92% 0.00in /  0mm 0.0 W/m2
06:22 60.6 °F /  15.9 °C 57.9 °F /  14.4 °C 29.73in /  1006.7hPa Calm     91% 0.00in /  0mm 0.0 W/m2
06:28 60.6 °F /  15.9 °C 58.3 °F /  14.6 °C 29.73in /  1006.7hPa Calm     92% 0.00in /  0mm 0.0 W/m2
06:34 60.6 °F /  15.9 °C 58.3 °F /  14.6 °C 29.73in /  1006.7hPa Calm   2.0mph /  3.2km/h 92% 0.00in /  0mm 0.0 W/m2
06:40 60.6 °F /  15.9 °C 57.9 °F /  14.4 °C 29.74in /  1007hPa West 2.0mph /  3.2km/h 7.0mph /  11.3km/h 91% 0.00in /  0mm 0.0 W/m2
06:46 61.0 °F /  16.1 °C 58.3 °F /  14.6 °C 29.74in /  1007hPa SW 4.0mph /  6.4km/h 4.0mph /  6.4km/h 91% 0.00in /  0mm 0.0 W/m2
06:52 61.2 °F /  16.2 °C 58.3 °F /  14.6 °C 29.74in /  1007hPa Calm   2.0mph /  3.2km/h 90% 0.00in /  0mm 0.0 W/m2
06:58 61.2 °F /  16.2 °C 58.3 °F /  14.6 °C 29.74in /  1007hPa Calm   5.0mph /  8km/h 90% 0.00in /  0mm 0.0 W/m2
07:05 61.3 °F /  16.3 °C 58.5 °F /  14.7 °C 29.75in /  1007.3hPa Calm   1.0mph /  1.6km/h 90% 0.00in /  0mm 0.0 W/m2
07:11 61.3 °F /  16.3 °C 58.6 °F /  14.8 °C 29.74in /  1007hPa Calm   2.0mph /  3.2km/h 91% 0.00in /  0mm 5.0 W/m2
07:17 61.3 °F /  16.3 °C 58.5 °F /  14.7 °C 29.75in /  1007.3hPa SSE 2.0mph /  3.2km/h 4.0mph /  6.4km/h 90% 0.00in /  0mm 9.0 W/m2
07:23 61.2 °F /  16.2 °C 57.6 °F /  14.2 °C 29.75in /  1007.3hPa SE 2.9mph /  4.7km/h 4.0mph /  6.4km/h 88% 0.00in /  0mm 14.0 W/m2
07:29 61.2 °F /  16.2 °C 57.9 °F /  14.4 °C 29.74in /  1007hPa South 2.0mph /  3.2km/h 2.0mph /  3.2km/h 89% 0.00in /  0mm 19.0 W/m2
07:35 61.3 °F /  16.3 °C 58.1 °F /  14.5 °C 29.74in /  1007hPa Calm   2.0mph /  3.2km/h 89% 0.00in /  0mm 23.0 W/m2
07:41 61.3 °F /  16.3 °C 58.1 °F /  14.5 °C 29.75in /  1007.3hPa SW 2.9mph /  4.7km/h 3.0mph /  4.8km/h 89% 0.00in /  0mm 23.0 W/m2
07:48 61.5 °F /  16.4 °C 58.3 °F /  14.6 °C 29.75in /  1007.3hPa Calm   2.0mph /  3.2km/h 89% 0.00in /  0mm 21.0 W/m2
07:54 61.5 °F /  16.4 °C 58.3 °F /  14.6 °C 29.75in /  1007.3hPa Calm   3.0mph /  4.8km/h 89% 0.00in /  0mm 23.0 W/m2
08:00 61.9 °F /  16.6 °C 58.6 °F /  14.8 °C 29.76in /  1007.7hPa Calm   3.0mph /  4.8km/h 89% 0.00in /  0mm 21.0 W/m2
08:06 61.9 °F /  16.6 °C 58.6 °F /  14.8 °C 29.76in /  1007.7hPa Calm   2.0mph /  3.2km/h 89% 0.00in /  0mm 26.0 W/m2
08:12 61.9 °F /  16.6 °C 59.0 °F /  15 °C 29.76in /  1007.7hPa Calm   1.0mph /  1.6km/h 90% 0.00in /  0mm 35.0 W/m2
08:18 62.1 °F /  16.7 °C 58.8 °F /  14.9 °C 29.76in /  1007.7hPa South 2.9mph /  4.7km/h 4.0mph /  6.4km/h 89% 0.00in /  0mm 44.0 W/m2
08:24 62.1 °F /  16.7 °C 58.8 °F /  14.9 °C 29.76in /  1007.7hPa South 2.9mph /  4.7km/h 7.0mph /  11.3km/h 89% 0.00in /  0mm 49.0 W/m2
08:30 62.2 °F /  16.8 °C 59.0 °F /  15 °C 29.76in /  1007.7hPa Calm   1.0mph /  1.6km/h 89% 0.00in /  0mm 54.0 W/m2
08:37 62.4 °F /  16.9 °C 58.8 °F /  14.9 °C 29.76in /  1007.7hPa Calm   2.0mph /  3.2km/h 88% 0.00in /  0mm 63.0 W/m2
08:43 62.4 °F /  16.9 °C 59.2 °F /  15.1 °C 29.77in /  1008hPa Calm   3.0mph /  4.8km/h 89% 0.00in /  0mm 83.0 W/m2
08:49 62.8 °F /  17.1 °C 59.7 °F /  15.4 °C 29.77in /  1008hPa Calm   1.0mph /  1.6km/h 90% 0.00in /  0mm 107.0 W/m2
08:55 62.8 °F /  17.1 °C 59.5 °F /  15.3 °C 29.77in /  1008hPa Calm   1.0mph /  1.6km/h 89% 0.00in /  0mm 88.0 W/m2
09:01 63.0 °F /  17.2 °C 59.7 °F /  15.4 °C 29.77in /  1008hPa Calm   2.0mph /  3.2km/h 89% 0.00in /  0mm 79.0 W/m2
09:07 63.0 °F /  17.2 °C 59.9 °F /  15.5 °C 29.77in /  1008hPa SSW 4.9mph /  7.9km/h 5.0mph /  8km/h 90% 0.00in /  0mm 83.0 W/m2
09:13 63.0 °F /  17.2 °C 59.9 °F /  15.5 °C 29.77in /  1008hPa ESE 0.9mph /  1.4km/h 5.0mph /  8km/h 90% 0.00in /  0mm 116.0 W/m2
09:19 63.1 °F /  17.3 °C 60.1 °F /  15.6 °C 29.77in /  1008hPa Calm   4.0mph /  6.4km/h 90% 0.00in /  0mm 105.0 W/m2
09:26 63.3 °F /  17.4 °C 60.1 °F /  15.6 °C 29.77in /  1008hPa SSE 2.0mph /  3.2km/h 2.0mph /  3.2km/h 89% 0.00in /  0mm 100.0 W/m2
09:32 63.3 °F /  17.4 °C 60.1 °F /  15.6 °C 29.77in /  1008hPa Calm   3.0mph /  4.8km/h 89% 0.00in /  0mm 139.0 W/m2
09:38 63.7 °F /  17.6 °C 60.4 °F /  15.8 °C 29.77in /  1008hPa Calm   3.0mph /  4.8km/h 89% 0.00in /  0mm 149.0 W/m2
09:44 63.9 °F /  17.7 °C 59.9 °F /  15.5 °C 29.77in /  1008hPa Calm   5.0mph /  8km/h 87% 0.00in /  0mm 178.0 W/m2
09:50 64.0 °F /  17.8 °C 59.7 °F /  15.4 °C 29.77in /  1008hPa ESE 2.0mph /  3.2km/h 2.0mph /  3.2km/h 86% 0.00in /  0mm 139.0 W/m2
09:56 64.4 °F /  18 °C 60.1 °F /  15.6 °C 29.77in /  1008hPa SSE 4.9mph /  7.9km/h 7.0mph /  11.3km/h 86% 0.00in /  0mm 139.0 W/m2
10:02 64.6 °F /  18.1 °C 60.3 °F /  15.7 °C 29.77in /  1008hPa South 4.0mph /  6.4km/h 4.0mph /  6.4km/h 86% 0.00in /  0mm 123.0 W/m2
10:09 64.6 °F /  18.1 °C 60.3 °F /  15.7 °C 29.77in /  1008hPa SSE 2.0mph /  3.2km/h 4.0mph /  6.4km/h 86% 0.00in /  0mm 102.0 W/m2
10:15 64.6 °F /  18.1 °C 60.3 °F /  15.7 °C 29.77in /  1008hPa Calm   4.0mph /  6.4km/h 86% 0.00in /  0mm 104.0 W/m2
10:21 64.6 °F /  18.1 °C 60.6 °F /  15.9 °C 29.77in /  1008hPa SSE 2.0mph /  3.2km/h 6.0mph /  9.7km/h 87% 0.00in /  0mm 100.0 W/m2
10:27 64.6 °F /  18.1 °C 61.0 °F /  16.1 °C 29.77in /  1008hPa SSE 0.9mph /  1.4km/h 5.0mph /  8km/h 88% 0.00in /  0mm 123.0 W/m2
10:33 64.6 °F /  18.1 °C 61.0 °F /  16.1 °C 29.77in /  1008hPa SSE 0.9mph /  1.4km/h 5.0mph /  8km/h 88% 0.00in /  0mm 144.0 W/m2
10:39 64.6 °F /  18.1 °C 60.6 °F /  15.9 °C 29.77in /  1008hPa South 4.0mph /  6.4km/h 6.0mph /  9.7km/h 87% 0.00in /  0mm 216.0 W/m2
10:45 64.8 °F /  18.2 °C 60.8 °F /  16 °C 29.77in /  1008hPa SW 2.0mph /  3.2km/h 4.0mph /  6.4km/h 87% 0.00in /  0mm 174.0 W/m2
10:51 65.1 °F /  18.4 °C 60.8 °F /  16 °C 29.77in /  1008hPa SE 4.9mph /  7.9km/h 7.0mph /  11.3km/h 86% 0.00in /  0mm 137.0 W/m2
10:57 65.3 °F /  18.5 °C 60.6 °F /  15.9 °C 29.76in /  1007.7hPa South 2.9mph /  4.7km/h 5.0mph /  8km/h 85% 0.00in /  0mm 148.0 W/m2
11:04 65.5 °F /  18.6 °C 60.8 °F /  16 °C 29.77in /  1008hPa SSE 2.0mph /  3.2km/h 5.0mph /  8km/h 85% 0.00in /  0mm 125.0 W/m2
11:10 65.5 °F /  18.6 °C 61.2 °F /  16.2 °C 29.77in /  1008hPa ESE 2.0mph /  3.2km/h 5.0mph /  8km/h 86% 0.00in /  0mm 98.0 W/m2
11:16 65.3 °F /  18.5 °C 61.3 °F /  16.3 °C 29.77in /  1008hPa SE 2.0mph /  3.2km/h 3.0mph /  4.8km/h 87% 0.00in /  0mm 139.0 W/m2
11:22 65.1 °F /  18.4 °C 61.5 °F /  16.4 °C 29.77in /  1008hPa SSE 2.9mph /  4.7km/h 6.0mph /  9.7km/h 88% 0.01in /  0.25mm 204.0 W/m2
11:28 65.1 °F /  18.4 °C 61.5 °F /  16.4 °C 29.76in /  1007.7hPa Calm   1.0mph /  1.6km/h 88% 0.01in /  0.25mm 253.0 W/m2
11:34 65.5 °F /  18.6 °C 61.9 °F /  16.6 °C 29.76in /  1007.7hPa Calm   3.0mph /  4.8km/h 88% 0.01in /  0.25mm 172.0 W/m2
11:40 65.7 °F /  18.7 °C 61.3 °F /  16.3 °C 29.76in /  1007.7hPa Calm     86% 0.01in /  0.25mm 204.0 W/m2
11:47 65.8 °F /  18.8 °C 61.9 °F /  16.6 °C 29.76in /  1007.7hPa NNE 0.9mph /  1.4km/h 3.0mph /  4.8km/h 87% 0.01in /  0.25mm 295.0 W/m2
11:53 66.2 °F /  19 °C 62.2 °F /  16.8 °C 29.76in /  1007.7hPa Calm   2.0mph /  3.2km/h 87% 0.01in /  0.25mm 339.0 W/m2
11:59 66.6 °F /  19.2 °C 62.2 °F /  16.8 °C 29.75in /  1007.3hPa NNW 4.0mph /  6.4km/h 4.0mph /  6.4km/h 86% 0.01in /  0.25mm 438.0 W/m2
12:05 67.3 °F /  19.6 °C 61.9 °F /  16.6 °C 29.75in /  1007.3hPa North 2.0mph /  3.2km/h 4.0mph /  6.4km/h 83% 0.01in /  0.25mm 534.0 W/m2
12:11 67.8 °F /  19.9 °C 62.1 °F /  16.7 °C 29.75in /  1007.3hPa Calm   4.0mph /  6.4km/h 82% 0.01in /  0.25mm 541.0 W/m2
12:17 68.4 °F /  20.2 °C 61.9 °F /  16.6 °C 29.75in /  1007.3hPa NW 0.9mph /  1.4km/h 3.0mph /  4.8km/h 80% 0.00in /  0mm 613.0 W/m2
12:23 69.1 °F /  20.6 °C 61.5 °F /  16.4 °C 29.74in /  1007hPa NNW 2.0mph /  3.2km/h 2.0mph /  3.2km/h 77% 0.00in /  0mm 413.0 W/m2
12:29 69.6 °F /  20.9 °C 61.7 °F /  16.5 °C 29.74in /  1007hPa SE 0.9mph /  1.4km/h 1.0mph /  1.6km/h 76% 0.00in /  0mm 367.0 W/m2
12:36 70.2 °F /  21.2 °C 61.9 °F /  16.6 °C 29.74in /  1007hPa NNE 0.9mph /  1.4km/h 3.0mph /  4.8km/h 75% 0.00in /  0mm 197.0 W/m2
12:42 70.3 °F /  21.3 °C 62.4 °F /  16.9 °C 29.74in /  1007hPa Calm   1.0mph /  1.6km/h 76% 0.00in /  0mm 172.0 W/m2
12:48 70.3 °F /  21.3 °C 62.1 °F /  16.7 °C 29.73in /  1006.7hPa Calm   1.0mph /  1.6km/h 75% 0.00in /  0mm 276.0 W/m2
12:54 70.5 °F /  21.4 °C 62.6 °F /  17 °C 29.73in /  1006.7hPa NW 2.9mph /  4.7km/h 3.0mph /  4.8km/h 76% 0.00in /  0mm 360.0 W/m2
13:00 70.9 °F /  21.6 °C 63.0 °F /  17.2 °C 29.73in /  1006.7hPa Calm   3.0mph /  4.8km/h 76% 0.00in /  0mm 253.0 W/m2
13:06 71.1 °F /  21.7 °C 63.1 °F /  17.3 °C 29.73in /  1006.7hPa NW 0.9mph /  1.4km/h 1.0mph /  1.6km/h 76% 0.00in /  0mm 283.0 W/m2
13:12 71.2 °F /  21.8 °C 62.1 °F /  16.7 °C 29.73in /  1006.7hPa Calm   3.0mph /  4.8km/h 73% 0.00in /  0mm 396.0 W/m2
13:19 71.4 °F /  21.9 °C 61.9 °F /  16.6 °C 29.72in /  1006.3hPa Calm   3.0mph /  4.8km/h 72% 0.00in /  0mm 538.0 W/m2
13:25 72.0 °F /  22.2 °C 62.1 °F /  16.7 °C 29.72in /  1006.3hPa Calm   2.0mph /  3.2km/h 71% 0.00in /  0mm 589.0 W/m2
13:31 72.3 °F /  22.4 °C 59.9 °F /  15.5 °C 29.72in /  1006.3hPa Calm   2.0mph /  3.2km/h 65% 0.00in /  0mm 675.0 W/m2
13:37 73.0 °F /  22.8 °C 60.1 °F /  15.6 °C 29.72in /  1006.3hPa ENE 0.9mph /  1.4km/h 2.0mph /  3.2km/h 64% 0.00in /  0mm 626.0 W/m2
13:43 73.9 °F /  23.3 °C 61.3 °F /  16.3 °C 29.72in /  1006.3hPa North 2.0mph /  3.2km/h 3.0mph /  4.8km/h 65% 0.00in /  0mm 710.0 W/m2
13:49 74.8 °F /  23.8 °C 61.9 °F /  16.6 °C 29.72in /  1006.3hPa SE 2.0mph /  3.2km/h 3.0mph /  4.8km/h 64% 0.00in /  0mm 383.0 W/m2
13:55 75.0 °F /  23.9 °C 60.3 °F /  15.7 °C 29.72in /  1006.3hPa NNW 0.9mph /  1.4km/h 4.0mph /  6.4km/h 60% 0.00in /  0mm 339.0 W/m2
14:01 75.0 °F /  23.9 °C 59.2 °F /  15.1 °C 29.71in /  1006hPa Calm   3.0mph /  4.8km/h 58% 0.00in /  0mm 677.0 W/m2
14:07 75.6 °F /  24.2 °C 60.6 °F /  15.9 °C 29.71in /  1006hPa East 2.0mph /  3.2km/h 6.0mph /  9.7km/h 60% 0.00in /  0mm 1252.0 W/m2
14:13 76.3 °F /  24.6 °C 59.9 °F /  15.5 °C 29.70in /  1005.6hPa SE 4.0mph /  6.4km/h 9.0mph /  14.5km/h 57% 0.00in /  0mm 299.0 W/m2
14:19 76.6 °F /  24.8 °C 60.3 °F /  15.7 °C 29.70in /  1005.6hPa SE 0.9mph /  1.4km/h 8.0mph /  12.9km/h 57% 0.00in /  0mm 1179.0 W/m2
14:25 77.5 °F /  25.3 °C 59.0 °F /  15 °C 29.70in /  1005.6hPa West 2.0mph /  3.2km/h 4.0mph /  6.4km/h 53% 0.00in /  0mm 288.0 W/m2
14:31 77.5 °F /  25.3 °C 59.5 °F /  15.3 °C 29.70in /  1005.6hPa ESE 6.0mph /  9.7km/h 9.0mph /  14.5km/h 54% 0.00in /  0mm 341.0 W/m2
14:37 77.5 °F /  25.3 °C 61.2 °F /  16.2 °C 29.70in /  1005.6hPa SSW 2.0mph /  3.2km/h 7.0mph /  11.3km/h 57% 0.00in /  0mm 1294.0 W/m2
14:43 77.5 °F /  25.3 °C 59.5 °F /  15.3 °C 29.69in /  1005.3hPa East 2.9mph /  4.7km/h 5.0mph /  8km/h 54% 0.00in /  0mm 308.0 W/m2
14:49 77.5 °F /  25.3 °C 60.6 °F /  15.9 °C 29.69in /  1005.3hPa SE 6.9mph /  11.1km/h 11.0mph /  17.7km/h 56% 0.00in /  0mm 343.0 W/m2
14:55 77.4 °F /  25.2 °C 60.4 °F /  15.8 °C 29.69in /  1005.3hPa SSE 4.9mph /  7.9km/h 9.0mph /  14.5km/h 56% 0.00in /  0mm 547.0 W/m2
15:01 76.8 °F /  24.9 °C 61.0 °F /  16.1 °C 29.69in /  1005.3hPa SSE 6.0mph /  9.7km/h 6.0mph /  9.7km/h 58% 0.00in /  0mm 221.0 W/m2
15:07 76.3 °F /  24.6 °C 61.0 °F /  16.1 °C 29.68in /  1005hPa ESE 2.0mph /  3.2km/h 4.0mph /  6.4km/h 59% 0.00in /  0mm 330.0 W/m2
15:13 76.3 °F /  24.6 °C 61.9 °F /  16.6 °C 29.68in /  1005hPa ESE 2.9mph /  4.7km/h 6.0mph /  9.7km/h 61% 0.00in /  0mm 287.0 W/m2
15:19 76.1 °F /  24.5 °C 61.2 °F /  16.2 °C 29.67in /  1004.6hPa ENE 2.9mph /  4.7km/h 6.0mph /  9.7km/h 60% 0.00in /  0mm 248.0 W/m2
15:25 75.9 °F /  24.4 °C 60.6 °F /  15.9 °C 29.68in /  1005hPa SW 6.0mph /  9.7km/h 8.0mph /  12.9km/h 59% 0.00in /  0mm 190.0 W/m2
15:31 75.7 °F /  24.3 °C 59.4 °F /  15.2 °C 29.68in /  1005hPa South 0.9mph /  1.4km/h 7.0mph /  11.3km/h 57% 0.00in /  0mm 176.0 W/m2
15:37 76.3 °F /  24.6 °C 59.9 °F /  15.5 °C 29.67in /  1004.6hPa SSW 4.9mph /  7.9km/h 8.0mph /  12.9km/h 57% 0.00in /  0mm 912.0 W/m2
15:43 77.0 °F /  25 °C 60.1 °F /  15.6 °C 29.67in /  1004.6hPa SSW 2.9mph /  4.7km/h 11.0mph /  17.7km/h 56% 0.00in /  0mm 918.0 W/m2
15:49 77.9 °F /  25.5 °C 58.8 °F /  14.9 °C 29.67in /  1004.6hPa SSE 0.9mph /  1.4km/h 8.0mph /  12.9km/h 52% 0.00in /  0mm 904.0 W/m2
15:55 78.3 °F /  25.7 °C 59.2 °F /  15.1 °C 29.67in /  1004.6hPa SSW 8.1mph /  13km/h 8.1mph /  13km/h 52% 0.00in /  0mm 826.0 W/m2
16:01 79.0 °F /  26.1 °C 58.1 °F /  14.5 °C 29.67in /  1004.6hPa SSE 10.1mph /  16.3km/h 12.0mph /  19.3km/h 49% 0.00in /  0mm 835.0 W/m2
16:07 79.2 °F /  26.2 °C 59.0 °F /  15 °C 29.66in /  1004.3hPa ESE 0.9mph /  1.4km/h 7.0mph /  11.3km/h 50% 0.00in /  0mm 793.0 W/m2
16:13 79.5 °F /  26.4 °C 58.1 °F /  14.5 °C 29.67in /  1004.6hPa SSW 4.9mph /  7.9km/h 9.0mph /  14.5km/h 48% 0.00in /  0mm 784.0 W/m2
16:19 79.3 °F /  26.3 °C 57.4 °F /  14.1 °C 29.66in /  1004.3hPa SSE 8.1mph /  13km/h 12.0mph /  19.3km/h 47% 0.00in /  0mm 185.0 W/m2
16:25 79.3 °F /  26.3 °C 56.8 °F /  13.8 °C 29.66in /  1004.3hPa East 6.9mph /  11.1km/h 11.0mph /  17.7km/h 46% 0.00in /  0mm 689.0 W/m2
16:31 79.5 °F /  26.4 °C 57.6 °F /  14.2 °C 29.66in /  1004.3hPa SW 2.0mph /  3.2km/h 7.0mph /  11.3km/h 47% 0.00in /  0mm 668.0 W/m2
16:37 79.9 °F /  26.6 °C 57.2 °F /  14 °C 29.66in /  1004.3hPa SSE 6.9mph /  11.1km/h 10.0mph /  16.1km/h 46% 0.00in /  0mm 657.0 W/m2
16:43 79.9 °F /  26.6 °C 57.9 °F /  14.4 °C 29.66in /  1004.3hPa South 4.9mph /  7.9km/h 9.0mph /  14.5km/h 47% 0.00in /  0mm 631.0 W/m2
16:49 79.9 °F /  26.6 °C 57.2 °F /  14 °C 29.65in /  1003.9hPa South 2.0mph /  3.2km/h 7.0mph /  11.3km/h 46% 0.00in /  0mm 635.0 W/m2
16:55 79.5 °F /  26.4 °C 58.1 °F /  14.5 °C 29.66in /  1004.3hPa SE 2.0mph /  3.2km/h 6.0mph /  9.7km/h 48% 0.00in /  0mm 56.0 W/m2
17:01 79.2 °F /  26.2 °C 56.7 °F /  13.7 °C 29.66in /  1004.3hPa South 6.0mph /  9.7km/h 9.0mph /  14.5km/h 46% 0.00in /  0mm 97.0 W/m2
17:07 78.8 °F /  26 °C 58.6 °F /  14.8 °C 29.66in /  1004.3hPa South 6.0mph /  9.7km/h 9.0mph /  14.5km/h 50% 0.00in /  0mm 561.0 W/m2
17:13 79.2 °F /  26.2 °C 57.7 °F /  14.3 °C 29.66in /  1004.3hPa SW 6.9mph /  11.1km/h 8.0mph /  12.9km/h 48% 0.00in /  0mm 520.0 W/m2
17:19 79.5 °F /  26.4 °C 58.1 °F /  14.5 °C 29.66in /  1004.3hPa ESE 2.9mph /  4.7km/h 8.0mph /  12.9km/h 48% 0.00in /  0mm 508.0 W/m2
17:25 79.5 °F /  26.4 °C 56.3 °F /  13.5 °C 29.66in /  1004.3hPa SW 2.9mph /  4.7km/h 7.0mph /  11.3km/h 45% 0.00in /  0mm 269.0 W/m2
17:27 79.2 °F /  26.2 °C 56.7 °F /  13.7 °C 29.67in /  1004.6hPa SSW 4.9mph /  7.9km/h 8.0mph /  12.9km/h 46% 0.00in /  0mm 468.0 W/m2
17:33 78.4 °F /  25.8 °C 54.7 °F /  12.6 °C 29.66in /  1004.3hPa WSW 0.9mph /  1.4km/h 7.0mph /  11.3km/h 44% 0.00in /  0mm 434.0 W/m2
17:39 78.3 °F /  25.7 °C 56.3 °F /  13.5 °C 29.66in /  1004.3hPa Calm   6.0mph /  9.7km/h 47% 0.00in /  0mm 399.0 W/m2
17:45 78.4 °F /  25.8 °C 55.4 °F /  13 °C 29.67in /  1004.6hPa Calm   10.0mph /  16.1km/h 45% 0.00in /  0mm 367.0 W/m2
17:51 78.4 °F /  25.8 °C 53.4 °F /  11.9 °C 29.67in /  1004.6hPa SE 2.0mph /  3.2km/h 7.0mph /  11.3km/h 42% 0.00in /  0mm 345.0 W/m2
17:57 78.3 °F /  25.7 °C 54.5 °F /  12.5 °C 29.67in /  1004.6hPa South 6.9mph /  11.1km/h 9.0mph /  14.5km/h 44% 0.00in /  0mm 322.0 W/m2
18:03 78.3 °F /  25.7 °C 56.3 °F /  13.5 °C 29.67in /  1004.6hPa SE 2.9mph /  4.7km/h 8.0mph /  12.9km/h 47% 0.00in /  0mm 292.0 W/m2
18:09 78.1 °F /  25.6 °C 55.6 °F /  13.1 °C 29.67in /  1004.6hPa SW 0.9mph /  1.4km/h 13.0mph /  20.9km/h 46% 0.00in /  0mm 267.0 W/m2
18:15 77.4 °F /  25.2 °C 55.6 °F /  13.1 °C 29.67in /  1004.6hPa SSE 4.9mph /  7.9km/h 9.0mph /  14.5km/h 47% 0.00in /  0mm 239.0 W/m2
18:22 77.2 °F /  25.1 °C 54.9 °F /  12.7 °C 29.67in /  1004.6hPa SSW 2.0mph /  3.2km/h 9.0mph /  14.5km/h 46% 0.00in /  0mm 192.0 W/m2
18:27 77.0 °F /  25 °C 54.0 °F /  12.2 °C 29.67in /  1004.6hPa SSW 2.0mph /  3.2km/h 11.0mph /  17.7km/h 45% 0.00in /  0mm 188.0 W/m2
18:33 77.0 °F /  25 °C 54.0 °F /  12.2 °C 29.68in /  1005hPa ESE 8.9mph /  14.3km/h 9.0mph /  14.5km/h 45% 0.00in /  0mm 162.0 W/m2
18:39 77.0 °F /  25 °C 52.9 °F /  11.6 °C 29.67in /  1004.6hPa SSE 6.0mph /  9.7km/h 10.0mph /  16.1km/h 43% 0.00in /  0mm 132.0 W/m2
18:45 76.8 °F /  24.9 °C 52.7 °F /  11.5 °C 29.68in /  1005hPa ESE 2.0mph /  3.2km/h 9.0mph /  14.5km/h 43% 0.00in /  0mm 105.0 W/m2
18:51 76.8 °F /  24.9 °C 52.7 °F /  11.5 °C 29.68in /  1005hPa SSE 0.9mph /  1.4km/h 8.0mph /  12.9km/h 43% 0.00in /  0mm 77.0 W/m2
18:57 76.8 °F /  24.9 °C 52.0 °F /  11.1 °C 29.68in /  1005hPa SSE 2.9mph /  4.7km/h 7.0mph /  11.3km/h 42% 0.00in /  0mm 54.0 W/m2
19:03 76.6 °F /  24.8 °C 52.5 °F /  11.4 °C 29.68in /  1005hPa South 0.9mph /  1.4km/h 3.0mph /  4.8km/h 43% 0.00in /  0mm 35.0 W/m2
19:09 76.3 °F /  24.6 °C 52.7 °F /  11.5 °C 29.69in /  1005.3hPa Calm   7.0mph /  11.3km/h 44% 0.00in /  0mm 16.0 W/m2
19:15 75.4 °F /  24.1 °C 52.5 °F /  11.4 °C 29.69in /  1005.3hPa SSE 0.9mph /  1.4km/h 5.0mph /  8km/h 45% 0.00in /  0mm 7.0 W/m2
19:21 74.7 °F /  23.7 °C 52.5 °F /  11.4 °C 29.69in /  1005.3hPa Calm   6.0mph /  9.7km/h 46% 0.00in /  0mm 5.0 W/m2
19:27 73.9 °F /  23.3 °C 53.1 °F /  11.7 °C 29.69in /  1005.3hPa Calm   7.0mph /  11.3km/h 48% 0.00in /  0mm 0.0 W/m2
19:33 73.4 °F /  23 °C 53.6 °F /  12 °C 29.70in /  1005.6hPa Calm   3.0mph /  4.8km/h 50% 0.00in /  0mm 0.0 W/m2
19:39 72.9 °F /  22.7 °C 54.1 °F /  12.3 °C 29.70in /  1005.6hPa Calm   3.0mph /  4.8km/h 52% 0.00in /  0mm 0.0 W/m2
19:45 72.3 °F /  22.4 °C 54.1 °F /  12.3 °C 29.70in /  1005.6hPa Calm   1.0mph /  1.6km/h 53% 0.00in /  0mm 0.0 W/m2
19:51 71.8 °F /  22.1 °C 54.3 °F /  12.4 °C 29.70in /  1005.6hPa Calm   2.0mph /  3.2km/h 54% 0.00in /  0mm 0.0 W/m2
19:57 71.2 °F /  21.8 °C 54.3 °F /  12.4 °C 29.70in /  1005.6hPa SSW 0.9mph /  1.4km/h 1.0mph /  1.6km/h 55% 0.00in /  0mm 0.0 W/m2
20:03 70.9 °F /  21.6 °C 54.0 °F /  12.2 °C 29.70in /  1005.6hPa Calm   1.0mph /  1.6km/h 55% 0.00in /  0mm 0.0 W/m2
20:09 70.2 °F /  21.2 °C 53.8 °F /  12.1 °C 29.71in /  1006hPa Calm   2.0mph /  3.2km/h 56% 0.00in /  0mm 0.0 W/m2
20:15 69.8 °F /  21 °C 54.9 °F /  12.7 °C 29.71in /  1006hPa Calm   1.0mph /  1.6km/h 59% 0.00in /  0mm 0.0 W/m2
20:21 69.3 °F /  20.7 °C 54.9 °F /  12.7 °C 29.71in /  1006hPa Calm   1.0mph /  1.6km/h 60% 0.00in /  0mm 0.0 W/m2
20:27 68.7 °F /  20.4 °C 54.7 °F /  12.6 °C 29.71in /  1006hPa Calm     61% 0.00in /  0mm 0.0 W/m2
20:33 68.4 °F /  20.2 °C 56.1 °F /  13.4 °C 29.72in /  1006.3hPa Calm     65% 0.00in /  0mm 0.0 W/m2
20:39 67.8 °F /  19.9 °C 55.6 °F /  13.1 °C 29.72in /  1006.3hPa Calm     65% 0.00in /  0mm 0.0 W/m2
20:48 67.5 °F /  19.7 °C 56.1 °F /  13.4 °C 29.72in /  1006.3hPa Calm     67% 0.00in /  0mm 0.0 W/m2
20:53 66.9 °F /  19.4 °C 55.9 °F /  13.3 °C 29.72in /  1006.3hPa Calm     68% 0.00in /  0mm 0.0 W/m2
21:00 66.6 °F /  19.2 °C 56.1 °F /  13.4 °C 29.72in /  1006.3hPa Calm     69% 0.00in /  0mm 0.0 W/m2
21:05 66.2 °F /  19 °C 56.1 °F /  13.4 °C 29.72in /  1006.3hPa Calm     70% 0.00in /  0mm 0.0 W/m2
21:11 65.7 °F /  18.7 °C 56.3 °F /  13.5 °C 29.73in /  1006.7hPa Calm     72% 0.00in /  0mm 0.0 W/m2
21:17 65.5 °F /  18.6 °C 56.7 °F /  13.7 °C 29.73in /  1006.7hPa Calm   1.0mph /  1.6km/h 73% 0.00in /  0mm 0.0 W/m2
21:23 65.1 °F /  18.4 °C 56.7 °F /  13.7 °C 29.73in /  1006.7hPa Calm     74% 0.00in /  0mm 0.0 W/m2
21:29 64.9 °F /  18.3 °C 56.8 °F /  13.8 °C 29.74in /  1007hPa Calm     75% 0.00in /  0mm 0.0 W/m2
21:35 64.8 °F /  18.2 °C 57.4 °F /  14.1 °C 29.74in /  1007hPa Calm     77% 0.00in /  0mm 0.0 W/m2
21:41 64.8 °F /  18.2 °C 58.1 °F /  14.5 °C 29.75in /  1007.3hPa Calm     79% 0.00in /  0mm 0.0 W/m2
21:47 64.6 °F /  18.1 °C 59.4 °F /  15.2 °C 29.75in /  1007.3hPa Calm     83% 0.00in /  0mm 0.0 W/m2
21:53 64.6 °F /  18.1 °C 59.9 °F /  15.5 °C 29.75in /  1007.3hPa Calm     85% 0.00in /  0mm 0.0 W/m2
21:59 64.6 °F /  18.1 °C 60.3 °F /  15.7 °C 29.75in /  1007.3hPa Calm     86% 0.00in /  0mm 0.0 W/m2
22:05 64.2 °F /  17.9 °C 59.9 °F /  15.5 °C 29.75in /  1007.3hPa Calm     86% 0.00in /  0mm 0.0 W/m2
22:11 64.2 °F /  17.9 °C 60.3 °F /  15.7 °C 29.75in /  1007.3hPa Calm     87% 0.00in /  0mm 0.0 W/m2
22:17 64.0 °F /  17.8 °C 60.1 °F /  15.6 °C 29.75in /  1007.3hPa Calm   1.0mph /  1.6km/h 87% 0.00in /  0mm 0.0 W/m2
22:23 63.9 °F /  17.7 °C 59.9 °F /  15.5 °C 29.75in /  1007.3hPa Calm     87% 0.00in /  0mm 0.0 W/m2
22:29 63.9 °F /  17.7 °C 60.3 °F /  15.7 °C 29.75in /  1007.3hPa Calm     88% 0.00in /  0mm 0.0 W/m2
22:35 63.7 °F /  17.6 °C 60.1 °F /  15.6 °C 29.75in /  1007.3hPa Calm   1.0mph /  1.6km/h 88% 0.00in /  0mm 0.0 W/m2
22:41 63.7 °F /  17.6 °C 60.1 °F /  15.6 °C 29.75in /  1007.3hPa Calm   1.0mph /  1.6km/h 88% 0.00in /  0mm 0.0 W/m2
22:47 63.5 °F /  17.5 °C 59.9 °F /  15.5 °C 29.75in /  1007.3hPa Calm     88% 0.00in /  0mm 0.0 W/m2
22:53 63.3 °F /  17.4 °C 60.1 °F /  15.6 °C 29.75in /  1007.3hPa Calm     89% 0.00in /  0mm 0.0 W/m2
22:59 63.3 °F /  17.4 °C 60.1 °F /  15.6 °C 29.75in /  1007.3hPa Calm     89% 0.00in /  0mm 0.0 W/m2
23:05 63.1 °F /  17.3 °C 60.1 °F /  15.6 °C 29.75in /  1007.3hPa Calm     90% 0.00in /  0mm 0.0 W/m2
23:11 63.0 °F /  17.2 °C 59.9 °F /  15.5 °C 29.75in /  1007.3hPa Calm     90% 0.00in /  0mm 0.0 W/m2
23:18 62.8 °F /  17.1 °C 59.7 °F /  15.4 °C 29.76in /  1007.7hPa Calm     90% 0.00in /  0mm 0.0 W/m2
23:24 62.8 °F /  17.1 °C 59.7 °F /  15.4 °C 29.76in /  1007.7hPa Calm     90% 0.00in /  0mm 0.0 W/m2
23:30 62.4 °F /  16.9 °C 59.4 °F /  15.2 °C 29.76in /  1007.7hPa Calm     90% 0.00in /  0mm 0.0 W/m2
23:36 62.2 °F /  16.8 °C 59.2 °F /  15.1 °C 29.76in /  1007.7hPa Calm     90% 0.00in /  0mm 0.0 W/m2
23:42 62.2 °F /  16.8 °C 59.2 °F /  15.1 °C 29.76in /  1007.7hPa Calm     90% 0.00in /  0mm 0.0 W/m2
23:48 62.1 °F /  16.7 °C 59.2 °F /  15.1 °C 29.76in /  1007.7hPa Calm     90% 0.00in /  0mm 0.0 W/m2
23:55 61.9 °F /  16.6 °C 59.0 °F /  15 °C 29.76in /  1007.7hPa NE 0.9mph /  1.4km/h 1.0mph /  1.6km/h 90% 0.00in /  0mm 0.0 W/m2
Olympia, Windhoek, Namibia
Compliments of Weather Underground - 3 mb